Time;durP1;ratioP1;P1;durP2;ratioP2;P2;SDS_P1;SDS_P2;PMS_P1;PMS_P2;Temp;Humidity;BMP_temperature;BMP_pressure;BME280_temperature;BME280_humidity;BME280_pressure;Samples;Min_cycle;Max_cycle;Signal;HPM_P1;HPM_P2
2022/05/02 00:01:20;;;;;;;9.53;8.00;;;13.50;93.80;;;;;;21088772;28;20234;-63
2022/05/02 00:11:22;;;;;;;11.80;8.67;;;13.40;94.10;;;;;;21088957;28;20244;-67
2022/05/02 00:21:24;;;;;;;13.37;9.53;;;13.20;94.30;;;;;;21086898;28;20710;-68
2022/05/02 00:31:26;;;;;;;9.77;8.77;;;13.10;94.50;;;;;;21100914;28;20252;-69
2022/05/02 00:41:28;;;;;;;9.97;8.70;;;12.90;94.60;;;;;;21086693;28;20234;-67
2022/05/02 00:51:30;;;;;;;10.60;8.53;;;12.80;95.20;;;;;;21084691;28;20210;-67
2022/05/02 01:01:32;;;;;;;10.93;9.30;;;12.60;95.20;;;;;;21083884;28;20327;-66
2022/05/02 01:11:34;;;;;;;10.30;9.10;;;12.50;95.00;;;;;;20935313;28;20221;-70
2022/05/02 01:21:36;;;;;;;11.13;8.97;;;12.40;95.40;;;;;;20915564;28;20239;-68
2022/05/02 01:31:37;;;;;;;12.43;9.73;;;12.30;95.50;;;;;;20915405;28;20213;-64
2022/05/02 01:41:39;;;;;;;11.27;9.20;;;12.20;95.60;;;;;;20913537;28;20233;-71
2022/05/02 01:51:41;;;;;;;12.47;9.70;;;12.10;95.80;;;;;;20913553;28;20207;-63
2022/05/02 02:01:42;;;;;;;10.37;9.13;;;12.00;95.90;;;;;;20913103;28;20232;-69
2022/05/02 02:23:06;;;;;;;11.10;9.90;;;11.70;96.40;;;;;;20911269;28;20243;-69
2022/05/02 02:33:08;;;;;;;16.43;10.33;;;11.80;96.80;;;;;;20911509;28;20207;-63
2022/05/02 02:43:10;;;;;;;13.10;10.10;;;11.80;96.50;;;;;;20911230;28;20265;-68
2022/05/02 02:53:12;;;;;;;14.40;9.40;;;11.80;96.90;;;;;;20913878;28;20210;-67
2022/05/02 03:03:13;;;;;;;14.03;10.37;;;11.60;96.90;;;;;;20926358;28;20633;-68
2022/05/02 03:13:15;;;;;;;13.93;10.40;;;11.60;97.00;;;;;;20923735;28;20226;-68
2022/05/02 03:23:17;;;;;;;14.07;10.10;;;11.60;97.40;;;;;;20924831;28;20253;-68
2022/05/02 03:33:19;;;;;;;18.33;9.73;;;11.50;97.20;;;;;;20924357;28;20208;-70
2022/05/02 03:43:21;;;;;;;12.03;9.90;;;11.30;97.30;;;;;;20923767;28;20239;-69
2022/05/02 03:53:22;;;;;;;13.90;9.30;;;11.30;97.20;;;;;;20922590;28;20258;-70
2022/05/02 04:03:24;;;;;;;13.03;8.90;;;11.20;97.00;;;;;;20920958;28;20239;-69
2022/05/02 04:13:26;;;;;;;13.17;9.47;;;11.10;96.90;;;;;;20921485;28;20210;-67
2022/05/02 04:23:28;;;;;;;13.90;11.43;;;11.10;96.90;;;;;;20925679;28;20244;-68
2022/05/02 04:33:30;;;;;;;13.73;10.37;;;11.10;96.80;;;;;;20922009;28;20261;-66
2022/05/02 04:43:32;;;;;;;10.83;8.90;;;11.20;96.70;;;;;;20917747;28;20241;-70
2022/05/02 04:53:34;;;;;;;17.10;9.47;;;11.20;96.80;;;;;;20913856;28;20643;-70
2022/05/02 05:03:36;;;;;;;14.33;11.20;;;11.40;96.70;;;;;;20916890;28;20265;-66
2022/05/02 05:16:20;;;;;;;13.27;9.83;;;11.70;96.30;;;;;;20939799;28;20215;-64
2022/05/02 05:24:53;;;;;;;12.90;9.30;;;11.90;96.30;;;;;;20917708;28;20239;-67
2022/05/02 05:35:09;;;;;;;18.13;13.17;;;12.10;96.20;;;;;;20913419;28;20661;-65
2022/05/02 05:45:19;;;;;;;12.67;9.50;;;12.50;96.10;;;;;;20912448;28;20245;-64
2022/05/02 05:55:36;;;;;;;19.70;9.67;;;12.70;96.50;;;;;;20987336;28;21005;-65
2022/05/02 06:05:43;;;;;;;20.53;9.00;;;12.80;96.10;;;;;;20991679;28;20300;-63
2022/05/02 06:26:10;;;;;;;29.20;19.87;;;13.20;94.90;;;;;;20993688;28;20720;-62
2022/05/02 06:36:18;;;;;;;13.83;8.00;;;13.30;94.30;;;;;;20992587;28;20214;-65
2022/05/02 06:46:28;;;;;;;15.00;7.63;;;13.70;93.90;;;;;;20990909;28;20210;-67
2022/05/02 06:56:41;;;;;;;11.67;8.17;;;14.20;93.60;;;;;;20997989;28;20213;-63
2022/05/02 07:07:10;;;;;;;14.17;7.00;;;14.50;92.70;;;;;;20985192;28;20261;-66
2022/05/02 07:17:50;;;;;;;10.70;6.00;;;14.80;92.00;;;;;;20919384;28;20238;-64
2022/05/02 07:27:55;;;;;;;7.23;5.43;;;15.10;91.10;;;;;;20916101;28;20260;-64
2022/05/02 07:37:58;;;;;;;8.93;6.43;;;15.50;90.30;;;;;;20923858;28;20236;-62
2022/05/02 07:48:03;;;;;;;10.60;6.20;;;15.80;88.20;;;;;;20934044;28;20233;-67
2022/05/02 07:58:07;;;;;;;7.27;6.20;;;15.90;87.10;;;;;;20941962;28;20304;-62
2022/05/02 08:08:26;;;;;;;13.67;5.90;;;16.40;85.40;;;;;;20939432;28;20252;-67
2022/05/02 08:18:46;;;;;;;8.23;6.37;;;16.70;83.40;;;;;;20931152;28;20264;-66
2022/05/02 08:29:06;;;;;;;12.77;7.13;;;16.80;81.40;;;;;;20942144;28;20221;-66
2022/05/02 08:39:13;;;;;;;12.47;6.30;;;17.10;81.00;;;;;;20941371;28;20231;-63
2022/05/02 08:49:47;;;;;;;9.80;6.50;;;17.20;79.10;;;;;;20937912;28;20572;-64
2022/05/02 09:00:03;;;;;;;12.63;6.90;;;17.30;77.90;;;;;;20933383;28;20281;-64
2022/05/02 09:10:16;;;;;;;9.33;7.40;;;17.40;77.10;;;;;;20929982;28;20211;-66
2022/05/02 09:20:24;;;;;;;10.37;6.90;;;17.60;76.50;;;;;;20914181;28;20244;-65
2022/05/02 09:31:00;;;;;;;9.93;7.40;;;17.70;75.90;;;;;;20916727;28;20251;-64
2022/05/02 09:41:36;;;;;;;14.40;8.00;;;17.90;75.40;;;;;;20917431;28;20296;-67
2022/05/02 09:52:09;;;;;;;13.20;9.00;;;18.20;75.00;;;;;;20931059;28;20247;-68
2022/05/02 10:02:21;;;;;;;11.47;7.17;;;18.30;74.20;;;;;;20920222;28;20232;-67
2022/05/02 10:12:40;;;;;;;13.60;7.20;;;18.80;73.40;;;;;;20918827;28;20611;-65
2022/05/02 10:23:01;;;;;;;11.30;7.30;;;18.80;72.40;;;;;;20912416;28;20651;-64
2022/05/02 10:33:11;;;;;;;9.17;6.80;;;18.90;71.30;;;;;;20913087;28;20236;-65
2022/05/02 10:43:24;;;;;;;7.50;6.10;;;19.20;70.60;;;;;;20912281;28;20241;-63
2022/05/02 10:53:44;;;;;;;6.97;6.20;;;19.40;68.70;;;;;;20912249;28;20231;-66
2022/05/02 11:03:55;;;;;;;9.83;6.23;;;19.50;68.50;;;;;;20920263;28;20740;-66
2022/05/02 11:14:17;;;;;;;10.00;6.17;;;19.70;67.80;;;;;;20936751;28;20307;-64
2022/05/02 11:24:42;;;;;;;8.93;6.90;;;19.80;66.80;;;;;;20965171;28;20326;-65
2022/05/02 11:34:58;;;;;;;12.00;5.67;;;20.10;65.90;;;;;;21021256;28;20215;-68
2022/05/02 11:45:14;;;;;;;6.67;5.63;;;20.10;65.60;;;;;;20987781;28;20311;-68
2022/05/02 11:55:19;;;;;;;16.17;11.97;;;20.20;65.30;;;;;;20953893;28;20215;-68
2022/05/02 12:05:24;;;;;;;12.50;7.10;;;20.70;64.20;;;;;;20948272;28;20288;-67
2022/05/02 12:15:26;;;;;;;23.70;16.77;;;20.40;63.80;;;;;;20923356;28;20603;-67
2022/05/02 12:25:29;;;;;;;11.00;7.63;;;20.60;63.60;;;;;;20921501;28;20235;-70
2022/05/02 12:35:36;;;;;;;11.67;5.83;;;21.10;62.60;;;;;;20967865;28;20215;-70
2022/05/02 12:45:46;;;;;;;17.83;11.23;;;21.10;61.00;;;;;;21001669;28;20250;-69
2022/05/02 12:55:50;;;;;;;8.13;5.13;;;21.40;60.20;;;;;;20915873;28;20235;-70
2022/05/02 13:05:58;;;;;;;13.73;10.60;;;21.50;58.90;;;;;;20914269;28;20246;-68
2022/05/02 13:16:00;;;;;;;7.07;5.10;;;21.60;58.30;;;;;;20986348;28;20262;-69
2022/05/02 13:26:39;;;;;;;5.53;4.77;;;21.80;57.40;;;;;;21000151;28;20268;-67
2022/05/02 13:36:43;;;;;;;8.27;4.67;;;21.90;56.80;;;;;;20999054;28;20260;-68
2022/05/02 13:46:55;;;;;;;5.97;4.30;;;21.80;55.80;;;;;;21001201;28;20333;-68
2022/05/02 13:57:22;;;;;;;6.60;4.30;;;22.00;55.00;;;;;;21001433;28;20302;-69
2022/05/02 14:07:25;;;;;;;12.97;9.10;;;22.20;54.00;;;;;;20999809;28;20230;-69
2022/05/02 14:17:36;;;;;;;8.33;6.10;;;23.00;52.90;;;;;;21000391;28;20617;-68
2022/05/02 14:27:38;;;;;;;6.23;3.93;;;24.00;51.60;;;;;;21003124;28;20205;-67
2022/05/02 14:37:42;;;;;;;4.77;3.90;;;25.10;49.10;;;;;;20998885;28;20270;-67
2022/05/02 14:47:49;;;;;;;4.17;3.73;;;24.40;48.70;;;;;;20977625;28;20218;-66
2022/05/02 14:57:53;;;;;;;4.93;3.70;;;23.20;49.80;;;;;;20996813;28;20230;-66
2022/05/02 15:08:04;;;;;;;7.67;4.20;;;22.70;51.00;;;;;;20942313;28;20271;-67
2022/05/02 15:18:18;;;;;;;10.50;4.47;;;22.40;50.50;;;;;;20963558;28;20235;-66
2022/05/02 15:38:50;;;;;;;5.93;4.70;;;23.30;49.50;;;;;;21011107;28;20226;-65
2022/05/02 15:49:05;;;;;;;6.93;4.20;;;22.70;49.70;;;;;;21021620;28;20257;-67
2022/05/02 15:59:14;;;;;;;6.83;4.17;;;22.20;50.10;;;;;;21018492;28;20234;-64
2022/05/02 16:19:45;;;;;;;4.60;4.10;;;21.70;50.20;;;;;;21018942;28;20243;-64
2022/05/02 16:29:56;;;;;;;11.00;6.87;;;21.50;50.40;;;;;;21022418;28;20203;-69
2022/05/02 16:39:59;;;;;;;6.17;4.30;;;21.30;50.40;;;;;;20945913;28;20234;-70
2022/05/02 16:50:01;;;;;;;4.80;4.40;;;21.30;50.40;;;;;;20938560;28;20290;-69
2022/05/02 17:00:26;;;;;;;6.07;4.10;;;21.40;50.20;;;;;;20933115;28;20295;-65
2022/05/02 17:10:28;;;;;;;7.33;4.47;;;21.70;49.70;;;;;;20922129;28;20200;-70
2022/05/02 17:20:32;;;;;;;7.50;4.67;;;21.30;50.10;;;;;;20923704;28;20297;-66
2022/05/02 17:30:35;;;;;;;9.97;4.50;;;21.10;50.70;;;;;;20928169;28;20206;-66
2022/05/02 17:40:40;;;;;;;6.57;4.47;;;21.00;51.00;;;;;;21008381;28;20227;-65
2022/05/02 17:50:43;;;;;;;8.33;5.23;;;20.80;50.90;;;;;;21016556;28;20210;-61
2022/05/02 18:01:00;;;;;;;6.70;4.60;;;20.50;51.60;;;;;;21010917;28;20326;-66
2022/05/02 18:11:05;;;;;;;6.73;4.60;;;20.30;52.50;;;;;;21018811;28;20249;-64
2022/05/02 18:21:07;;;;;;;7.27;4.47;;;20.10;53.60;;;;;;21023003;28;20340;-66
2022/05/02 18:31:09;;;;;;;8.30;5.20;;;19.80;54.30;;;;;;21021817;28;20231;-64
2022/05/02 18:41:28;;;;;;;11.00;5.10;;;19.60;54.90;;;;;;20943578;28;20237;-67
2022/05/02 19:02:06;;;;;;;5.20;4.23;;;19.20;55.80;;;;;;20923053;28;20243;-66
2022/05/02 19:12:10;;;;;;;7.70;4.30;;;19.10;56.00;;;;;;20914857;28;20208;-65
2022/05/02 19:22:24;;;;;;;5.37;4.60;;;19.00;56.80;;;;;;20915187;28;20294;-65
2022/05/02 19:32:27;;;;;;;6.30;4.70;;;18.80;57.30;;;;;;20929990;28;20609;-64
2022/05/02 19:42:34;;;;;;;7.60;5.00;;;18.80;57.90;;;;;;20935996;28;20232;-64
2022/05/02 19:52:39;;;;;;;7.60;4.80;;;18.60;58.60;;;;;;20929870;28;20213;-70
2022/05/02 20:02:45;;;;;;;6.83;4.70;;;18.50;59.30;;;;;;20927924;28;20334;-67
2022/05/02 20:12:47;;;;;;;6.33;5.30;;;18.30;59.90;;;;;;20925487;28;20296;-68
2022/05/02 20:22:50;;;;;;;7.67;5.73;;;18.10;61.20;;;;;;20922693;28;20250;-67
2022/05/02 20:43:29;;;;;;;7.93;6.63;;;17.60;64.50;;;;;;20925383;28;20238;-69
2022/05/02 20:53:38;;;;;;;11.53;6.33;;;17.10;67.70;;;;;;20921426;28;20685;-68
2022/05/02 21:03:40;;;;;;;11.07;6.60;;;16.90;69.60;;;;;;20924528;28;20248;-65
2022/05/02 21:14:09;;;;;;;10.17;7.10;;;16.70;70.90;;;;;;20922154;28;20212;-69
2022/05/02 21:24:29;;;;;;;9.23;6.67;;;16.40;72.60;;;;;;20918365;28;20257;-64
2022/05/02 21:34:37;;;;;;;10.20;6.83;;;16.20;74.10;;;;;;20919846;28;20263;-67
2022/05/02 21:44:38;;;;;;;7.40;6.50;;;16.10;75.50;;;;;;20915972;28;20257;-66
2022/05/02 21:54:43;;;;;;;10.37;7.10;;;15.90;76.60;;;;;;20917458;28;20200;-65
2022/05/02 22:04:44;;;;;;;10.80;6.90;;;15.60;78.20;;;;;;20923179;28;20242;-65
2022/05/02 22:14:46;;;;;;;9.87;6.97;;;15.60;79.20;;;;;;20919293;28;20642;-68
2022/05/02 22:24:48;;;;;;;7.63;6.50;;;15.40;80.10;;;;;;20913504;28;20239;-67
2022/05/02 22:34:51;;;;;;;8.23;6.93;;;15.40;81.20;;;;;;20994773;28;20383;-68
2022/05/02 22:44:53;;;;;;;12.90;6.90;;;15.30;82.10;;;;;;20994966;28;20694;-69
2022/05/02 22:54:55;;;;;;;9.23;7.00;;;15.20;83.10;;;;;;20994586;28;20209;-69
2022/05/02 23:04:59;;;;;;;11.03;7.03;;;15.10;83.70;;;;;;20993515;28;20250;-68
2022/05/02 23:15:07;;;;;;;11.83;6.80;;;15.00;84.60;;;;;;21004168;28;20292;-64
2022/05/02 23:25:11;;;;;;;8.47;7.10;;;14.90;85.40;;;;;;21008712;28;20239;-62
2022/05/02 23:35:18;;;;;;;9.77;7.93;;;14.90;85.90;;;;;;21007757;28;20249;-62
2022/05/02 23:45:37;;;;;;;8.33;6.80;;;14.70;86.60;;;;;;21006929;28;20234;-63
2022/05/02 23:55:42;;;;;;;9.07;7.40;;;14.70;87.30;;;;;;21006417;28;20214;-64
